Time;durP1;ratioP1;P1;durP2;ratioP2;P2;SDS_P1;SDS_P2;PMS_P1;PMS_P2;Temp;Humidity;BMP_temperature;BMP_pressure;BME280_temperature;BME280_humidity;BME280_pressure;Samples;Min_cycle;Max_cycle;Signal;HPM_P1;HPM_P2
2022/02/15 00:02:00;;;;;;;;;;;;;;;-0.68;98.97;100482.31;5094842;28;806;-59
2022/02/15 00:04:27;;;;;;;;;;;;;;;-0.77;98.27;100478.72;5076566;28;886;-59
2022/02/15 00:06:53;;;;;;;;;;;;;;;-0.85;98.00;100477.56;5094625;28;855;-59
2022/02/15 00:09:21;;;;;;;;;;;;;;;-0.82;98.24;100483.16;5094865;28;826;-59
2022/02/15 00:11:48;;;;;;;;;;;;;;;-0.65;98.97;100479.75;5094719;28;870;-59
2022/02/15 00:14:15;;;;;;;;;;;;;;;-0.64;98.57;100469.69;5094575;28;890;-59
2022/02/15 00:16:41;;;;;;;;;;;;;;;-0.59;98.59;100476.91;5094876;28;1886;-59
2022/02/15 00:19:08;;;;;;;;;;;;;;;-0.56;98.66;100470.84;5094537;28;1068;-59
2022/02/15 00:21:35;;;;;;;;;;;;;;;-0.58;98.53;100464.94;5094608;28;870;-59
2022/02/15 00:24:02;;;;;;;;;;;;;;;-0.51;98.47;100460.66;5094539;28;768;-59
2022/02/15 00:26:28;;;;;;;;;;;;;;;-0.48;98.41;100461.97;5094361;28;889;-59
2022/02/15 00:28:56;;;;;;;;;;;;;;;-0.45;98.33;100458.59;5094616;28;803;-59
2022/02/15 00:31:23;;;;;;;;;;;;;;;-0.47;98.15;100452.69;5094551;28;878;-58
2022/02/15 00:33:50;;;;;;;;;;;;;;;-0.51;97.67;100451.69;5094350;28;831;-59
2022/02/15 00:36:16;;;;;;;;;;;;;;;-0.48;98.25;100454.59;5094133;28;1902;-59
2022/02/15 00:38:43;;;;;;;;;;;;;;;-0.42;98.01;100449.84;5093535;28;1207;-59
2022/02/15 00:41:10;;;;;;;;;;;;;;;-0.36;98.09;100439.63;5094233;28;818;-59
2022/02/15 00:43:37;;;;;;;;;;;;;;;-0.38;97.78;100450.81;5094431;28;866;-58
2022/02/15 00:46:05;;;;;;;;;;;;;;;-0.42;97.62;100447.13;5094064;28;918;-59
2022/02/15 00:48:31;;;;;;;;;;;;;;;-0.41;97.80;100443.28;5094150;28;854;-59
2022/02/15 00:50:58;;;;;;;;;;;;;;;-0.42;97.67;100447.13;5093989;28;870;-58
2022/02/15 00:53:25;;;;;;;;;;;;;;;-0.32;97.97;100446.03;5093930;28;795;-59
2022/02/15 00:55:52;;;;;;;;;;;;;;;-0.37;97.19;100440.75;5093793;28;1914;-59
2022/02/15 00:58:18;;;;;;;;;;;;;;;-0.43;97.07;100440.09;5093931;28;825;-59
2022/02/15 01:00:44;;;;;;;;;;;;;;;-0.42;97.58;100439.00;5093830;28;814;-59
2022/02/15 01:03:09;;;;;;;;;;;;;;;-0.36;97.76;100436.91;5093753;28;806;-59
2022/02/15 01:05:36;;;;;;;;;;;;;;;-0.36;97.59;100432.31;5093644;28;953;-59
2022/02/15 01:08:03;;;;;;;;;;;;;;;-0.39;97.40;100432.13;5093588;28;881;-58
2022/02/15 01:10:30;;;;;;;;;;;;;;;-0.37;97.56;100425.25;5093601;28;913;-59
2022/02/15 01:12:56;;;;;;;;;;;;;;;-0.23;97.75;100428.66;5093351;28;875;-59
2022/02/15 01:15:23;;;;;;;;;;;;;;;-0.11;97.64;100427.25;5093532;28;1028;-59
2022/02/15 01:17:50;;;;;;;;;;;;;;;-0.15;97.64;100418.13;5093476;28;1885;-59
2022/02/15 01:20:16;;;;;;;;;;;;;;;-0.16;97.36;100416.53;5093279;28;882;-59
2022/02/15 01:22:43;;;;;;;;;;;;;;;-0.15;97.52;100416.25;5093248;28;918;-59
2022/02/15 01:25:11;;;;;;;;;;;;;;;-0.11;97.73;100413.66;5093374;28;873;-59
2022/02/15 01:27:37;;;;;;;;;;;;;;;-0.11;97.73;100414.47;5093307;28;912;-59
2022/02/15 01:30:05;;;;;;;;;;;;;;;-0.13;97.73;100419.41;5093217;28;874;-59
2022/02/15 01:32:32;;;;;;;;;;;;;;;-0.11;97.63;100419.91;5093172;28;851;-59
2022/02/15 01:34:59;;;;;;;;;;;;;;;-0.12;97.65;100412.09;5093139;28;866;-59
2022/02/15 01:37:27;;;;;;;;;;;;;;;-0.14;97.86;100408.88;5093076;28;1893;-59
2022/02/15 01:39:54;;;;;;;;;;;;;;;-0.16;97.73;100411.91;5092911;28;1341;-58
2022/02/15 01:42:19;;;;;;;;;;;;;;;-0.22;98.00;100413.16;5093013;28;847;-59
2022/02/15 01:44:46;;;;;;;;;;;;;;;-0.30;97.51;100412.03;5092797;28;976;-59
2022/02/15 01:47:27;;;;;;;;;;;;;;;-0.37;97.60;100406.25;5074646;28;1195;-58
2022/02/15 01:49:53;;;;;;;;;;;;;;;-0.44;97.54;100406.69;5092147;28;807;-59
2022/02/15 01:52:20;;;;;;;;;;;;;;;-0.52;97.17;100412.88;5092852;28;799;-59
2022/02/15 01:54:48;;;;;;;;;;;;;;;-0.68;96.98;100411.72;5092877;28;1023;-59
2022/02/15 01:57:16;;;;;;;;;;;;;;;-0.80;96.90;100408.78;5092651;28;1945;-59
2022/02/15 01:59:44;;;;;;;;;;;;;;;-0.88;96.89;100411.09;5092554;28;957;-58
2022/02/15 02:02:14;;;;;;;;;;;;;;;-1.04;96.52;100409.91;5092503;28;853;-59
2022/02/15 02:07:27;;;;;;;;;;;;;;;-1.14;97.15;100410.94;5092928;28;598;-58
2022/02/15 02:09:54;;;;;;;;;;;;;;;-1.20;97.13;100408.66;5092753;28;870;-58
2022/02/15 02:12:21;;;;;;;;;;;;;;;-1.29;97.12;100403.97;5092409;28;1056;-58
2022/02/15 02:14:59;;;;;;;;;;;;;;;-1.33;97.72;100405.72;5092272;28;867;-59
2022/02/15 02:17:26;;;;;;;;;;;;;;;-1.44;97.27;100401.63;5092190;28;1972;-58
2022/02/15 02:19:54;;;;;;;;;;;;;;;-1.47;97.94;100405.78;5092538;28;795;-58
2022/02/15 02:22:24;;;;;;;;;;;;;;;-1.44;99.00;100402.44;5092319;28;909;-58
2022/02/15 02:24:51;;;;;;;;;;;;;;;-1.37;99.09;100412.84;5092179;28;891;-59
2022/02/15 02:27:22;;;;;;;;;;;;;;;-1.35;98.57;100409.84;5092176;28;843;-59
2022/02/15 02:29:51;;;;;;;;;;;;;;;-1.37;99.06;100410.13;5092240;28;811;-59
2022/02/15 02:32:23;;;;;;;;;;;;;;;-1.34;99.13;100395.19;5092103;28;803;-59
2022/02/15 02:34:50;;;;;;;;;;;;;;;-1.31;98.87;100399.97;5092173;28;873;-59
2022/02/15 02:37:17;;;;;;;;;;;;;;;-1.28;98.80;100396.63;5091998;28;1894;-59
2022/02/15 02:39:44;;;;;;;;;;;;;;;-1.28;99.36;100405.59;5091693;28;1161;-59
2022/02/15 02:42:12;;;;;;;;;;;;;;;-1.28;98.70;100400.19;5092088;28;818;-59
2022/02/15 02:44:39;;;;;;;;;;;;;;;-1.29;98.51;100411.31;5091724;28;937;-59
2022/02/15 02:47:07;;;;;;;;;;;;;;;-1.30;98.42;100401.56;5091748;28;894;-59
2022/02/15 02:49:34;;;;;;;;;;;;;;;-1.33;98.27;100408.41;5091903;28;838;-58
2022/02/15 02:52:01;;;;;;;;;;;;;;;-1.54;97.49;100402.66;5073722;28;1182;-59
2022/02/15 02:54:28;;;;;;;;;;;;;;;-1.60;97.82;100398.50;5091783;28;875;-59
2022/02/15 02:56:55;;;;;;;;;;;;;;;-1.60;98.51;100403.91;5091619;28;1985;-59
2022/02/15 02:59:22;;;;;;;;;;;;;;;-1.69;97.90;100403.81;5091798;28;835;-58
2022/02/15 03:01:48;;;;;;;;;;;;;;;-1.73;97.65;100402.03;5091636;28;850;-59
2022/02/15 03:04:15;;;;;;;;;;;;;;;-1.78;97.38;100410.28;5092012;28;886;-59
2022/02/15 03:06:42;;;;;;;;;;;;;;;-1.89;98.07;100407.78;5091638;28;885;-59
2022/02/15 03:09:09;;;;;;;;;;;;;;;-1.98;97.47;100412.31;5091525;28;862;-59
2022/02/15 03:11:35;;;;;;;;;;;;;;;-2.13;97.55;100404.53;5091419;28;835;-59
2022/02/15 03:14:02;;;;;;;;;;;;;;;-2.08;98.56;100407.91;5091481;28;819;-58
2022/02/15 03:16:30;;;;;;;;;;;;;;;-2.06;98.14;100415.75;5091731;28;1901;-59
2022/02/15 03:18:56;;;;;;;;;;;;;;;-2.19;97.63;100413.84;5091517;28;1018;-59
2022/02/15 03:21:23;;;;;;;;;;;;;;;-2.12;97.94;100414.25;5091505;28;819;-59
2022/02/15 03:23:50;;;;;;;;;;;;;;;-2.17;98.00;100417.84;5091572;28;875;-58
2022/02/15 03:26:17;;;;;;;;;;;;;;;-2.22;97.43;100419.84;5091573;28;830;-59
2022/02/15 03:28:44;;;;;;;;;;;;;;;-2.27;97.46;100429.69;5091390;28;842;-59
2022/02/15 03:31:10;;;;;;;;;;;;;;;-2.39;97.13;100423.16;5091384;28;823;-59
2022/02/15 03:33:36;;;;;;;;;;;;;;;-2.55;97.43;100430.78;5091305;28;882;-59
2022/02/15 03:36:03;;;;;;;;;;;;;;;-2.59;97.26;100435.19;5091439;28;1951;-59
2022/02/15 03:38:30;;;;;;;;;;;;;;;-2.39;98.27;100434.00;5091295;28;1213;-59
2022/02/15 03:43:41;;;;;;;;;;;;;;;-2.23;97.62;100439.94;5091917;28;602;-59
2022/02/15 03:46:07;;;;;;;;;;;;;;;-2.30;97.52;100445.75;5091281;28;949;-59
2022/02/15 03:48:34;;;;;;;;;;;;;;;-2.33;97.40;100440.91;5091251;28;893;-58
2022/02/15 03:51:00;;;;;;;;;;;;;;;-2.32;97.50;100440.63;5091198;28;889;-59
2022/02/15 03:53:27;;;;;;;;;;;;;;;-2.33;97.45;100433.59;5091237;28;815;-58
2022/02/15 03:55:54;;;;;;;;;;;;;;;-2.30;97.96;100441.13;5091081;28;1918;-59
2022/02/15 03:58:20;;;;;;;;;;;;;;;-2.28;98.16;100441.63;5091216;28;859;-59
2022/02/15 04:00:46;;;;;;;;;;;;;;;-2.31;97.80;100439.50;5091140;28;867;-59
2022/02/15 04:03:13;;;;;;;;;;;;;;;-2.22;98.24;100436.09;5073142;28;1211;-59
2022/02/15 04:05:39;;;;;;;;;;;;;;;-2.15;98.74;100436.53;5091319;28;989;-59
2022/02/15 04:08:06;;;;;;;;;;;;;;;-2.17;97.99;100428.69;5091327;28;764;-59
2022/02/15 04:10:33;;;;;;;;;;;;;;;-2.24;98.14;100431.00;5091695;28;854;-58
2022/02/15 04:13:00;;;;;;;;;;;;;;;-2.23;98.54;100435.31;5092560;28;823;-59
2022/02/15 04:15:27;;;;;;;;;;;;;;;-2.22;98.52;100428.78;5095220;28;996;-59
2022/02/15 04:17:54;;;;;;;;;;;;;;;-2.19;98.38;100428.19;5076570;28;1944;-58
2022/02/15 04:20:20;;;;;;;;;;;;;;;-2.14;98.16;100430.78;5095000;28;815;-59
2022/02/15 04:22:47;;;;;;;;;;;;;;;-2.08;98.81;100428.78;5094525;28;846;-59
2022/02/15 04:25:14;;;;;;;;;;;;;;;-2.10;98.30;100436.41;5094442;28;831;-59
2022/02/15 04:27:40;;;;;;;;;;;;;;;-2.01;98.66;100442.72;5094321;28;846;-59
2022/02/15 04:30:08;;;;;;;;;;;;;;;-2.08;98.24;100437.72;5094351;28;847;-59
2022/02/15 04:32:35;;;;;;;;;;;;;;;-2.22;97.62;100447.72;5094419;28;815;-59
2022/02/15 04:35:01;;;;;;;;;;;;;;;-2.32;98.31;100446.03;5094282;28;803;-59
2022/02/15 04:37:27;;;;;;;;;;;;;;;-2.42;97.85;100448.13;5094182;28;1944;-59
2022/02/15 04:39:54;;;;;;;;;;;;;;;-2.47;98.07;100451.75;5075994;28;1372;-58
2022/02/15 04:42:20;;;;;;;;;;;;;;;-2.57;97.74;100451.94;5094112;28;858;-59
2022/02/15 04:44:47;;;;;;;;;;;;;;;-2.76;97.28;100449.28;5094170;28;852;-58
2022/02/15 04:47:13;;;;;;;;;;;;;;;-2.94;97.15;100461.78;5094116;28;795;-58
2022/02/15 04:49:40;;;;;;;;;;;;;;;-3.04;96.61;100459.22;5094092;28;815;-58
2022/02/15 04:52:06;;;;;;;;;;;;;;;-3.13;96.83;100450.97;5094017;28;1033;-58
2022/02/15 04:54:33;;;;;;;;;;;;;;;-3.29;96.66;100451.22;5093975;28;803;-58
2022/02/15 04:57:00;;;;;;;;;;;;;;;-3.39;96.60;100453.25;5093891;28;1965;-59
2022/02/15 04:59:27;;;;;;;;;;;;;;;-3.37;97.24;100449.19;5093703;28;811;-58
2022/02/15 05:01:54;;;;;;;;;;;;;;;-3.36;97.22;100455.38;5093788;28;862;-58
2022/02/15 05:07:05;;;;;;;;;;;;;;;-3.32;97.32;100459.91;5093742;28;685;-58
2022/02/15 05:09:31;;;;;;;;;;;;;;;-3.16;97.80;100467.78;5093728;28;842;-58
2022/02/15 05:11:58;;;;;;;;;;;;;;;-3.09;98.04;100469.03;5093499;28;862;-58
2022/02/15 05:14:24;;;;;;;;;;;;;;;-3.02;98.61;100475.97;5093614;28;857;-58
2022/02/15 05:16:51;;;;;;;;;;;;;;;-3.13;97.49;100469.91;5093854;28;1953;-58
2022/02/15 05:19:17;;;;;;;;;;;;;;;-3.33;96.93;100474.53;5093784;28;823;-58
2022/02/15 05:21:44;;;;;;;;;;;;;;;-3.36;97.16;100474.31;5093429;28;867;-59
2022/02/15 05:24:09;;;;;;;;;;;;;;;-3.28;97.70;100474.44;5092179;28;920;-59
2022/02/15 05:26:36;;;;;;;;;;;;;;;-3.15;97.85;100478.31;5093252;28;930;-58
2022/02/15 05:29:02;;;;;;;;;;;;;;;-3.00;98.42;100482.69;5093322;28;842;-58
2022/02/15 05:31:29;;;;;;;;;;;;;;;-2.87;98.73;100481.13;5093315;28;806;-58
2022/02/15 05:33:55;;;;;;;;;;;;;;;-2.78;98.82;100487.47;5093117;28;990;-59
2022/02/15 05:36:22;;;;;;;;;;;;;;;-2.75;98.99;100484.19;5093127;28;1894;-58
2022/02/15 05:38:49;;;;;;;;;;;;;;;-2.51;99.16;100485.94;5092845;28;1257;-58
2022/02/15 05:41:15;;;;;;;;;;;;;;;-2.37;99.33;100491.34;5093326;28;780;-59
2022/02/15 05:43:42;;;;;;;;;;;;;;;-2.28;98.97;100495.78;5093384;28;885;-59
2022/02/15 05:46:09;;;;;;;;;;;;;;;-2.13;99.62;100493.91;5093054;28;866;-58
2022/02/15 05:48:35;;;;;;;;;;;;;;;-2.04;99.25;100492.09;5092921;28;815;-58
2022/02/15 05:51:01;;;;;;;;;;;;;;;-1.85;100.00;100487.38;5093057;28;867;-58
2022/02/15 05:53:29;;;;;;;;;;;;;;;-1.58;100.00;100491.16;5093130;28;870;-59
2022/02/15 05:55:58;;;;;;;;;;;;;;;-1.24;100.00;100485.25;5093002;28;1899;-58
2022/02/15 05:58:25;;;;;;;;;;;;;;;-0.99;100.00;100479.53;5092529;28;911;-58
2022/02/15 06:00:52;;;;;;;;;;;;;;;-0.74;100.00;100480.81;5108587;28;854;-58
2022/02/15 06:06:03;;;;;;;;;;;;;;;0.26;100.00;100503.97;5093060;28;656;-58
2022/02/15 06:08:29;;;;;;;;;;;;;;;0.45;100.00;100512.66;5092675;28;882;-58
2022/02/15 06:10:56;;;;;;;;;;;;;;;0.54;100.00;100513.47;5092426;28;847;-58
2022/02/15 06:13:23;;;;;;;;;;;;;;;0.74;100.00;100512.03;5092692;28;921;-58
2022/02/15 06:15:49;;;;;;;;;;;;;;;0.90;100.00;100506.94;5092382;28;1961;-58
2022/02/15 06:18:16;;;;;;;;;;;;;;;1.13;100.00;100499.41;5092315;28;949;-58
2022/02/15 06:20:42;;;;;;;;;;;;;;;1.49;100.00;100517.28;5092271;28;852;-58
2022/02/15 06:23:09;;;;;;;;;;;;;;;1.88;98.33;100525.50;5092114;28;960;-58
2022/02/15 06:25:35;;;;;;;;;;;;;;;2.25;97.11;100538.34;5092195;28;861;-58
2022/02/15 06:28:01;;;;;;;;;;;;;;;2.63;97.55;100526.59;5092326;28;834;-58
2022/02/15 06:30:28;;;;;;;;;;;;;;;2.95;96.03;100531.69;5092185;28;857;-58
2022/02/15 06:32:55;;;;;;;;;;;;;;;3.31;94.60;100525.59;5092023;28;915;-58
2022/02/15 06:35:22;;;;;;;;;;;;;;;3.24;90.56;100519.84;5091614;28;823;-58
2022/02/15 06:37:50;;;;;;;;;;;;;;;3.07;90.55;100529.00;5091600;28;1885;-58
2022/02/15 06:40:17;;;;;;;;;;;;;;;3.10;90.90;100522.09;5091805;28;858;-58
2022/02/15 06:42:44;;;;;;;;;;;;;;;3.38;91.40;100528.56;5091995;28;874;-58
2022/02/15 06:45:10;;;;;;;;;;;;;;;3.94;91.78;100519.16;5091965;28;928;-58
2022/02/15 06:47:37;;;;;;;;;;;;;;;4.38;89.75;100519.41;5091878;28;893;-58
2022/02/15 06:50:04;;;;;;;;;;;;;;;4.39;87.65;100526.44;5091813;28;1049;-58
2022/02/15 06:52:31;;;;;;;;;;;;;;;4.32;86.42;100524.28;5091803;28;1076;-58
2022/02/15 06:54:58;;;;;;;;;;;;;;;4.22;85.50;100528.28;5091815;28;835;-58
2022/02/15 06:57:24;;;;;;;;;;;;;;;4.42;87.03;100525.78;5091532;28;1901;-58
2022/02/15 06:59:51;;;;;;;;;;;;;;;4.75;85.06;100527.56;5091739;28;898;-58
2022/02/15 07:02:21;;;;;;;;;;;;;;;5.09;84.21;100524.25;5091762;28;855;-59
2022/02/15 07:04:48;;;;;;;;;;;;;;;5.45;84.09;100527.22;5091616;28;929;-58
2022/02/15 07:07:15;;;;;;;;;;;;;;;5.51;81.86;100518.38;5091648;28;863;-58
2022/02/15 07:09:41;;;;;;;;;;;;;;;5.14;82.04;100525.16;5091496;28;814;-58
2022/02/15 07:12:09;;;;;;;;;;;;;;;5.03;82.57;100530.34;5091537;28;985;-58
2022/02/15 07:14:35;;;;;;;;;;;;;;;4.90;82.79;100529.56;5091311;28;910;-58
2022/02/15 07:17:01;;;;;;;;;;;;;;;4.98;80.07;100527.84;5091963;28;1882;-59
2022/02/15 07:19:32;;;;;;;;;;;;;;;5.02;81.61;100520.53;5091502;28;865;-58
2022/02/15 07:22:01;;;;;;;;;;;;;;;5.21;82.39;100526.19;5106845;28;882;-58
2022/02/15 07:24:29;;;;;;;;;;;;;;;5.60;82.80;100528.41;5091647;28;873;-58
2022/02/15 07:26:55;;;;;;;;;;;;;;;6.07;79.32;100530.44;5091570;28;934;-59
2022/02/15 07:29:22;;;;;;;;;;;;;;;6.62;80.59;100517.63;5091723;28;868;-59
2022/02/15 07:31:50;;;;;;;;;;;;;;;6.68;75.88;100527.16;5091746;28;859;-58
2022/02/15 07:34:16;;;;;;;;;;;;;;;6.11;74.75;100523.09;5091497;28;827;-58
2022/02/15 07:36:44;;;;;;;;;;;;;;;5.66;73.86;100524.25;5091732;28;1975;-58
2022/02/15 07:39:10;;;;;;;;;;;;;;;5.42;74.63;100522.41;5091314;28;1236;-58
2022/02/15 07:41:37;;;;;;;;;;;;;;;5.68;74.72;100530.19;5091661;28;870;-58
2022/02/15 07:44:03;;;;;;;;;;;;;;;6.06;73.74;100521.41;5091533;28;1010;-58
2022/02/15 07:46:30;;;;;;;;;;;;;;;5.98;71.82;100516.09;5091787;28;862;-58
2022/02/15 07:48:57;;;;;;;;;;;;;;;6.19;70.97;100519.38;5095296;28;851;-58
2022/02/15 07:51:23;;;;;;;;;;;;;;;6.19;70.76;100511.13;5095490;28;842;-58
2022/02/15 07:53:49;;;;;;;;;;;;;;;6.28;69.47;100513.69;5095106;28;874;-59
2022/02/15 07:56:16;;;;;;;;;;;;;;;6.25;69.66;100504.22;5095078;28;1941;-59
2022/02/15 07:58:43;;;;;;;;;;;;;;;6.15;68.68;100502.00;5095062;28;831;-58
2022/02/15 08:01:09;;;;;;;;;;;;;;;5.93;68.55;100498.72;5094978;28;577;-58
2022/02/15 08:03:36;;;;;;;;;;;;;;;5.94;69.29;100491.28;5094930;28;827;-58
2022/02/15 08:06:02;;;;;;;;;;;;;;;5.92;69.41;100491.63;5094843;28;863;-58
2022/02/15 08:08:29;;;;;;;;;;;;;;;5.97;68.65;100487.03;5094691;28;862;-59
2022/02/15 08:10:56;;;;;;;;;;;;;;;5.99;68.45;100490.22;5094696;28;824;-58
2022/02/15 08:13:24;;;;;;;;;;;;;;;5.90;67.30;100493.13;5094718;28;823;-58
2022/02/15 08:15:50;;;;;;;;;;;;;;;6.11;68.07;100490.94;5094362;28;1893;-58
2022/02/15 08:18:17;;;;;;;;;;;;;;;6.41;67.32;100500.66;5094562;28;885;-59
2022/02/15 08:20:44;;;;;;;;;;;;;;;6.69;67.13;100501.28;5094657;28;838;-58
2022/02/15 08:23:10;;;;;;;;;;;;;;;6.81;65.74;100507.81;5094706;28;881;-58
2022/02/15 08:25:37;;;;;;;;;;;;;;;6.85;64.70;100503.16;5094572;28;873;-59
2022/02/15 08:28:03;;;;;;;;;;;;;;;6.85;65.40;100512.22;5094635;28;811;-58
2022/02/15 08:30:30;;;;;;;;;;;;;;;6.97;65.14;100500.28;5094442;28;1177;-58
2022/02/15 08:32:57;;;;;;;;;;;;;;;7.18;64.59;100491.69;5094262;28;953;-58
2022/02/15 08:35:23;;;;;;;;;;;;;;;7.08;63.84;100500.50;5094237;28;914;-58
2022/02/15 08:37:51;;;;;;;;;;;;;;;7.37;64.31;100490.88;5093333;28;1889;-58
2022/02/15 08:40:18;;;;;;;;;;;;;;;7.47;64.20;100487.53;5076353;28;829;-59
2022/02/15 08:42:45;;;;;;;;;;;;;;;7.38;63.08;100495.22;5094323;28;929;-58
2022/02/15 08:45:11;;;;;;;;;;;;;;;7.04;63.28;100497.72;5076281;28;1283;-58
2022/02/15 08:47:38;;;;;;;;;;;;;;;7.08;63.60;100497.75;5094393;28;878;-58
2022/02/15 08:50:05;;;;;;;;;;;;;;;7.08;63.32;100487.59;5094181;28;918;-58
2022/02/15 08:52:31;;;;;;;;;;;;;;;7.26;64.44;100490.69;5094225;28;831;-59
2022/02/15 08:54:57;;;;;;;;;;;;;;;7.43;64.54;100491.41;5093989;28;866;-59
2022/02/15 08:57:23;;;;;;;;;;;;;;;7.35;63.54;100471.19;5093984;28;1976;-58
2022/02/15 08:59:53;;;;;;;;;;;;;;;7.47;62.75;100484.00;5093775;28;799;-59
2022/02/15 09:02:20;;;;;;;;;;;;;;;7.50;62.96;100475.81;5093771;28;870;-59
2022/02/15 09:04:46;;;;;;;;;;;;;;;7.60;64.62;100476.38;5093851;28;1067;-59
2022/02/15 09:07:13;;;;;;;;;;;;;;;7.70;62.55;100470.25;5093776;28;895;-59
2022/02/15 09:09:40;;;;;;;;;;;;;;;7.56;62.61;100471.59;5094007;28;798;-58
2022/02/15 09:12:07;;;;;;;;;;;;;;;7.60;63.73;100465.38;5093788;28;815;-58
2022/02/15 09:14:34;;;;;;;;;;;;;;;7.66;62.78;100470.22;5093542;28;859;-59
2022/02/15 09:17:00;;;;;;;;;;;;;;;7.67;62.63;100471.00;5093425;28;1905;-59
2022/02/15 09:19:27;;;;;;;;;;;;;;;7.77;63.08;100470.38;5093536;28;970;-59
2022/02/15 09:21:54;;;;;;;;;;;;;;;7.75;62.61;100465.25;5093598;28;1019;-58
2022/02/15 09:24:21;;;;;;;;;;;;;;;7.74;63.91;100463.63;5093333;28;826;-58
2022/02/15 09:26:48;;;;;;;;;;;;;;;7.74;63.71;100462.84;5093236;28;911;-58
2022/02/15 09:29:16;;;;;;;;;;;;;;;7.87;63.13;100463.47;5093362;28;946;-58
2022/02/15 09:31:42;;;;;;;;;;;;;;;7.93;63.41;100454.53;5093192;28;1199;-59
2022/02/15 09:34:09;;;;;;;;;;;;;;;8.15;63.49;100455.66;5093296;28;867;-59
2022/02/15 09:36:35;;;;;;;;;;;;;;;8.16;62.78;100454.50;5093139;28;1951;-59
2022/02/15 09:39:03;;;;;;;;;;;;;;;8.17;63.47;100447.84;5092990;28;1430;-59
2022/02/15 09:41:33;;;;;;;;;;;;;;;8.15;62.12;100446.59;5092937;28;882;-59
2022/02/15 09:44:01;;;;;;;;;;;;;;;8.11;62.52;100446.56;5092922;28;899;-58
2022/02/15 09:46:28;;;;;;;;;;;;;;;7.74;63.64;100441.63;5092873;28;945;-59
2022/02/15 09:48:54;;;;;;;;;;;;;;;7.63;64.50;100434.38;5092954;28;811;-58
2022/02/15 09:51:25;;;;;;;;;;;;;;;7.57;64.29;100428.38;5092708;28;795;-59
2022/02/15 09:53:51;;;;;;;;;;;;;;;7.44;64.54;100426.97;5092343;28;847;-59
2022/02/15 09:56:18;;;;;;;;;;;;;;;7.28;64.92;100429.84;5092743;28;1914;-59
2022/02/15 09:58:45;;;;;;;;;;;;;;;7.20;64.39;100425.34;5092539;28;874;-59
2022/02/15 10:01:16;;;;;;;;;;;;;;;6.97;64.62;100422.56;5092764;28;843;-59
2022/02/15 10:03:58;;;;;;;;;;;;;;;7.03;66.09;100424.63;5093026;28;1270;-58
2022/02/15 10:06:30;;;;;;;;;;;;;;;7.14;64.76;100414.63;5092390;28;915;-59
2022/02/15 10:09:00;;;;;;;;;;;;;;;7.05;65.63;100410.53;5092713;28;896;-59
2022/02/15 10:11:35;;;;;;;;;;;;;;;7.21;66.37;100403.00;5092029;28;896;-59
2022/02/15 10:14:02;;;;;;;;;;;;;;;7.50;64.67;100409.78;5092540;28;898;-59
2022/02/15 10:16:30;;;;;;;;;;;;;;;7.57;65.47;100407.16;5092451;28;1889;-59
2022/02/15 10:18:57;;;;;;;;;;;;;;;7.50;64.83;100401.53;5092320;28;996;-59
2022/02/15 10:21:26;;;;;;;;;;;;;;;7.46;65.26;100399.88;5092449;28;966;-59
2022/02/15 10:23:53;;;;;;;;;;;;;;;7.92;63.90;100394.34;5092579;28;866;-58
2022/02/15 10:26:19;;;;;;;;;;;;;;;8.37;62.95;100376.91;5092215;28;981;-59
2022/02/15 10:28:46;;;;;;;;;;;;;;;8.59;62.38;100380.72;5092282;28;906;-59
2022/02/15 10:31:13;;;;;;;;;;;;;;;8.52;62.48;100383.41;5092300;28;942;-58
2022/02/15 10:33:42;;;;;;;;;;;;;;;8.77;62.18;100367.19;5092182;28;863;-59
2022/02/15 10:36:09;;;;;;;;;;;;;;;9.05;61.72;100362.38;5091644;28;1951;-58
2022/02/15 10:38:36;;;;;;;;;;;;;;;9.60;61.32;100367.97;5073947;28;1369;-59
2022/02/15 10:41:05;;;;;;;;;;;;;;;10.00;58.74;100364.31;5092201;28;881;-58
2022/02/15 10:44:01;;;;;;;;;;;;;;;9.97;58.26;100354.03;5091726;28;855;-59
2022/02/15 10:46:39;;;;;;;;;;;;;;;10.17;58.51;100353.75;5083051;28;1282;-59
2022/02/15 10:49:07;;;;;;;;;;;;;;;9.95;57.55;100350.88;5091914;28;925;-59
2022/02/15 10:51:33;;;;;;;;;;;;;;;9.84;57.51;100347.25;5091832;28;1055;-59
2022/02/15 10:54:00;;;;;;;;;;;;;;;9.83;58.42;100345.66;5091986;28;815;-59
2022/02/15 10:56:31;;;;;;;;;;;;;;;9.81;57.59;100345.25;5091780;28;1975;-59
2022/02/15 10:58:59;;;;;;;;;;;;;;;9.94;57.38;100340.22;5091634;28;851;-59
2022/02/15 11:01:25;;;;;;;;;;;;;;;10.18;57.50;100347.06;5091690;28;1030;-58
2022/02/15 11:03:52;;;;;;;;;;;;;;;10.17;56.38;100334.44;5091538;28;835;-58
2022/02/15 11:06:19;;;;;;;;;;;;;;;10.24;56.83;100339.97;5091631;28;1057;-59
2022/02/15 11:08:50;;;;;;;;;;;;;;;10.38;55.86;100342.84;5092022;28;811;-59
2022/02/15 11:11:21;;;;;;;;;;;;;;;10.46;55.34;100331.84;5091837;28;866;-58
2022/02/15 11:13:47;;;;;;;;;;;;;;;10.77;54.59;100333.91;5091221;28;875;-59
2022/02/15 11:16:35;;;;;;;;;;;;;;;10.89;54.18;100329.22;5091611;28;1913;-59
2022/02/15 11:19:13;;;;;;;;;;;;;;;10.68;54.25;100324.41;5091450;28;863;-59
2022/02/15 11:21:40;;;;;;;;;;;;;;;10.87;54.14;100321.28;5092622;28;1118;-59
2022/02/15 11:24:07;;;;;;;;;;;;;;;10.82;55.59;100318.91;5095459;28;934;-59
2022/02/15 11:26:42;;;;;;;;;;;;;;;11.23;54.97;100313.06;5095738;28;811;-59
2022/02/15 11:29:19;;;;;;;;;;;;;;;11.14;53.07;100309.88;5095393;28;930;-59
2022/02/15 11:31:46;;;;;;;;;;;;;;;11.12;53.73;100313.03;5095481;28;909;-59
2022/02/15 11:34:13;;;;;;;;;;;;;;;11.24;52.85;100298.81;5095302;28;906;-59
2022/02/15 11:36:47;;;;;;;;;;;;;;;11.23;52.74;100304.75;5077198;28;1948;-59
2022/02/15 11:39:18;;;;;;;;;;;;;;;11.39;52.68;100296.84;5077505;28;1317;-59
2022/02/15 11:41:47;;;;;;;;;;;;;;;11.15;51.74;100292.88;5109215;28;1200;-59
2022/02/15 11:44:17;;;;;;;;;;;;;;;10.68;52.93;100297.53;5095384;28;949;-59
2022/02/15 11:46:46;;;;;;;;;;;;;;;10.67;52.99;100295.16;5095338;28;918;-59
2022/02/15 11:49:14;;;;;;;;;;;;;;;10.96;53.30;100287.72;5096906;28;1257;-59
2022/02/15 11:51:41;;;;;;;;;;;;;;;11.38;52.59;100284.19;5115695;28;854;-59
2022/02/15 11:54:13;;;;;;;;;;;;;;;11.55;52.51;100282.59;5115647;28;929;-59
2022/02/15 11:56:45;;;;;;;;;;;;;;;11.77;52.32;100279.78;5080493;28;1905;-60
2022/02/15 11:59:19;;;;;;;;;;;;;;;11.70;51.78;100290.88;5115623;28;779;-59
2022/02/15 12:01:56;;;;;;;;;;;;;;;11.72;52.36;100282.97;5115522;28;906;-60
2022/02/15 12:04:24;;;;;;;;;;;;;;;11.68;51.61;100266.34;5115184;28;845;-59
2022/02/15 12:06:51;;;;;;;;;;;;;;;11.55;51.59;100270.72;5115303;28;908;-60
2022/02/15 12:09:25;;;;;;;;;;;;;;;11.58;51.38;100281.78;5115227;28;870;-59
2022/02/15 12:11:52;;;;;;;;;;;;;;;11.81;51.09;100272.25;5115254;28;861;-59
2022/02/15 12:14:22;;;;;;;;;;;;;;;12.14;50.68;100272.97;5115244;28;857;-60
2022/02/15 12:16:50;;;;;;;;;;;;;;;12.24;50.17;100272.91;5115469;28;1961;-60
2022/02/15 12:19:26;;;;;;;;;;;;;;;12.30;49.10;100267.75;5096842;28;1360;-60
2022/02/15 12:21:55;;;;;;;;;;;;;;;12.21;49.38;100270.19;5130812;27;1340;-60
2022/02/15 12:24:22;;;;;;;;;;;;;;;12.14;49.26;100271.00;5114973;28;932;-59
2022/02/15 12:26:49;;;;;;;;;;;;;;;12.15;49.05;100274.56;5115041;28;849;-59
2022/02/15 12:29:16;;;;;;;;;;;;;;;12.15;49.92;100283.66;5114850;28;937;-60
2022/02/15 12:31:42;;;;;;;;;;;;;;;12.27;49.30;100282.44;5096635;28;861;-59
2022/02/15 12:34:13;;;;;;;;;;;;;;;12.31;49.10;100276.84;5113954;28;842;-60
2022/02/15 12:36:41;;;;;;;;;;;;;;;12.26;48.88;100278.06;5115166;28;1870;-59
2022/02/15 12:39:08;;;;;;;;;;;;;;;12.15;49.06;100275.34;5096788;28;965;-60
2022/02/15 12:41:36;;;;;;;;;;;;;;;12.41;49.70;100282.34;5114560;28;1253;-60
2022/02/15 12:44:03;;;;;;;;;;;;;;;12.73;49.22;100273.06;5096437;28;944;-60
2022/02/15 12:46:30;;;;;;;;;;;;;;;12.74;47.66;100274.66;5114562;28;945;-60
2022/02/15 12:48:59;;;;;;;;;;;;;;;12.84;48.51;100264.69;5114530;28;862;-60
2022/02/15 12:51:31;;;;;;;;;;;;;;;12.83;48.15;100271.44;5096257;28;1234;-60
2022/02/15 12:53:59;;;;;;;;;;;;;;;12.69;47.66;100258.44;5114554;28;1367;-60
2022/02/15 12:56:30;;;;;;;;;;;;;;;12.64;48.31;100258.88;5114347;28;1905;-59
2022/02/15 12:58:58;;;;;;;;;;;;;;;12.42;48.54;100264.53;5114367;28;803;-60
2022/02/15 13:01:29;;;;;;;;;;;;;;;12.47;48.55;100257.78;5096259;28;890;-60
2022/02/15 13:03:57;;;;;;;;;;;;;;;12.84;48.70;100259.94;5114117;28;920;-60
2022/02/15 13:06:25;;;;;;;;;;;;;;;12.96;47.16;100261.44;5114229;28;834;-60
2022/02/15 13:08:56;;;;;;;;;;;;;;;12.80;47.16;100259.19;5114742;28;825;-59
2022/02/15 13:11:30;;;;;;;;;;;;;;;12.69;46.99;100254.88;5114188;28;865;-60